sensor_id;sensor_type;location;lat;lon;timestamp;temperature;humidity
49549;DHT22;35450;44.518;7.466;2023-04-01T00:01:20;12.00;62.00
49549;DHT22;35450;44.518;7.466;2023-04-01T00:04:24;11.70;64.80
49549;DHT22;35450;44.518;7.466;2023-04-01T00:07:28;11.70;64.90
49549;DHT22;35450;44.518;7.466;2023-04-01T00:10:32;11.80;63.80
49549;DHT22;35450;44.518;7.466;2023-04-01T00:13:36;11.80;63.70
49549;DHT22;35450;44.518;7.466;2023-04-01T00:16:40;11.60;65.60
49549;DHT22;35450;44.518;7.466;2023-04-01T00:19:44;11.70;66.20
49549;DHT22;35450;44.518;7.466;2023-04-01T00:22:48;11.50;65.60
49549;DHT22;35450;44.518;7.466;2023-04-01T00:25:52;11.40;64.70
49549;DHT22;35450;44.518;7.466;2023-04-01T00:28:55;11.10;65.60
49549;DHT22;35450;44.518;7.466;2023-04-01T00:31:59;11.10;65.80
49549;DHT22;35450;44.518;7.466;2023-04-01T00:35:04;11.10;65.50
49549;DHT22;35450;44.518;7.466;2023-04-01T00:38:09;11.30;65.20
49549;DHT22;35450;44.518;7.466;2023-04-01T00:41:16;11.20;63.10
49549;DHT22;35450;44.518;7.466;2023-04-01T00:44:23;11.20;62.70
49549;DHT22;35450;44.518;7.466;2023-04-01T00:47:28;11.40;63.10
49549;DHT22;35450;44.518;7.466;2023-04-01T00:50:33;11.40;63.90
49549;DHT22;35450;44.518;7.466;2023-04-01T00:53:43;11.30;65.00
49549;DHT22;35450;44.518;7.466;2023-04-01T00:56:52;11.20;65.10
49549;DHT22;35450;44.518;7.466;2023-04-01T00:59:59;11.30;62.90
49549;DHT22;35450;44.518;7.466;2023-04-01T01:03:03;11.30;59.20
49549;DHT22;35450;44.518;7.466;2023-04-01T01:16:10;11.60;57.30
49549;DHT22;35450;44.518;7.466;2023-04-01T01:19:33;11.50;58.00
49549;DHT22;35450;44.518;7.466;2023-04-01T01:33:35;11.30;62.20
49549;DHT22;35450;44.518;7.466;2023-04-01T01:36:44;11.20;59.00
49549;DHT22;35450;44.518;7.466;2023-04-01T01:39:56;11.20;60.10
49549;DHT22;35450;44.518;7.466;2023-04-01T01:43:05;11.20;60.20
49549;DHT22;35450;44.518;7.466;2023-04-01T01:46:13;11.20;59.00
49549;DHT22;35450;44.518;7.466;2023-04-01T01:49:18;11.30;59.80
49549;DHT22;35450;44.518;7.466;2023-04-01T01:52:24;11.30;58.30
49549;DHT22;35450;44.518;7.466;2023-04-01T01:55:48;11.20;58.80
49549;DHT22;35450;44.518;7.466;2023-04-01T01:59:12;11.20;57.80
49549;DHT22;35450;44.518;7.466;2023-04-01T02:02:18;11.40;58.90
49549;DHT22;35450;44.518;7.466;2023-04-01T02:05:24;11.30;59.80
49549;DHT22;35450;44.518;7.466;2023-04-01T02:08:34;11.50;60.60
49549;DHT22;35450;44.518;7.466;2023-04-01T02:11:45;11.20;60.80
49549;DHT22;35450;44.518;7.466;2023-04-01T02:14:53;11.20;58.90
49549;DHT22;35450;44.518;7.466;2023-04-01T02:17:59;11.20;57.20
49549;DHT22;35450;44.518;7.466;2023-04-01T02:21:04;11.30;57.80
49549;DHT22;35450;44.518;7.466;2023-04-01T02:24:12;11.30;56.90
49549;DHT22;35450;44.518;7.466;2023-04-01T02:27:17;11.30;56.60
49549;DHT22;35450;44.518;7.466;2023-04-01T02:30:21;11.40;55.70
49549;DHT22;35450;44.518;7.466;2023-04-01T02:33:27;11.40;55.70
49549;DHT22;35450;44.518;7.466;2023-04-01T02:36:32;11.50;55.70
49549;DHT22;35450;44.518;7.466;2023-04-01T02:39:37;11.50;56.00
49549;DHT22;35450;44.518;7.466;2023-04-01T02:42:41;11.50;55.10
49549;DHT22;35450;44.518;7.466;2023-04-01T02:45:45;11.50;55.40
49549;DHT22;35450;44.518;7.466;2023-04-01T02:48:49;11.50;54.50
49549;DHT22;35450;44.518;7.466;2023-04-01T02:51:53;11.40;56.10
49549;DHT22;35450;44.518;7.466;2023-04-01T02:54:57;11.80;48.60
49549;DHT22;35450;44.518;7.466;2023-04-01T02:58:02;12.10;48.00
49549;DHT22;35450;44.518;7.466;2023-04-01T03:01:06;12.30;48.00
49549;DHT22;35450;44.518;7.466;2023-04-01T03:04:12;12.30;51.10
49549;DHT22;35450;44.518;7.466;2023-04-01T03:07:16;12.20;52.00
49549;DHT22;35450;44.518;7.466;2023-04-01T03:10:20;11.90;54.50
49549;DHT22;35450;44.518;7.466;2023-04-01T03:13:25;11.80;54.40
49549;DHT22;35450;44.518;7.466;2023-04-01T03:16:29;11.70;54.70
49549;DHT22;35450;44.518;7.466;2023-04-01T03:19:33;11.70;53.30
49549;DHT22;35450;44.518;7.466;2023-04-01T03:22:42;11.50;54.90
49549;DHT22;35450;44.518;7.466;2023-04-01T03:25:47;11.40;54.90
49549;DHT22;35450;44.518;7.466;2023-04-01T03:28:53;11.50;52.70
49549;DHT22;35450;44.518;7.466;2023-04-01T03:31:57;11.50;53.40
49549;DHT22;35450;44.518;7.466;2023-04-01T03:35:02;11.70;50.40
49549;DHT22;35450;44.518;7.466;2023-04-01T03:38:07;11.70;50.20
49549;DHT22;35450;44.518;7.466;2023-04-01T03:41:15;11.80;49.50
49549;DHT22;35450;44.518;7.466;2023-04-01T03:44:21;12.00;48.80
49549;DHT22;35450;44.518;7.466;2023-04-01T03:47:29;12.10;47.10
49549;DHT22;35450;44.518;7.466;2023-04-01T03:50:34;12.20;47.40
49549;DHT22;35450;44.518;7.466;2023-04-01T03:53:39;12.10;49.60
49549;DHT22;35450;44.518;7.466;2023-04-01T03:56:43;12.10;49.40
49549;DHT22;35450;44.518;7.466;2023-04-01T03:59:48;12.20;50.50
49549;DHT22;35450;44.518;7.466;2023-04-01T04:02:53;12.10;49.30
49549;DHT22;35450;44.518;7.466;2023-04-01T04:06:02;12.10;50.00
49549;DHT22;35450;44.518;7.466;2023-04-01T04:09:06;12.10;50.00
49549;DHT22;35450;44.518;7.466;2023-04-01T04:12:10;12.00;49.90
49549;DHT22;35450;44.518;7.466;2023-04-01T04:15:14;12.00;50.00
49549;DHT22;35450;44.518;7.466;2023-04-01T04:18:18;12.00;51.20
49549;DHT22;35450;44.518;7.466;2023-04-01T04:21:23;12.00;50.60
49549;DHT22;35450;44.518;7.466;2023-04-01T04:24:27;11.90;51.10
49549;DHT22;35450;44.518;7.466;2023-04-01T04:27:39;11.80;50.10
49549;DHT22;35450;44.518;7.466;2023-04-01T04:30:45;11.90;48.30
49549;DHT22;35450;44.518;7.466;2023-04-01T04:33:50;12.00;49.80
49549;DHT22;35450;44.518;7.466;2023-04-01T04:36:55;11.90;50.20
49549;DHT22;35450;44.518;7.466;2023-04-01T04:40:03;11.90;50.10
49549;DHT22;35450;44.518;7.466;2023-04-01T04:43:11;11.80;50.80
49549;DHT22;35450;44.518;7.466;2023-04-01T04:46:17;11.80;49.30
49549;DHT22;35450;44.518;7.466;2023-04-01T04:49:22;11.80;48.80
49549;DHT22;35450;44.518;7.466;2023-04-01T04:52:25;11.90;47.90
49549;DHT22;35450;44.518;7.466;2023-04-01T04:55:29;11.90;47.90
49549;DHT22;35450;44.518;7.466;2023-04-01T04:58:53;12.10;47.60
49549;DHT22;35450;44.518;7.466;2023-04-01T05:02:01;12.10;47.80
49549;DHT22;35450;44.518;7.466;2023-04-01T05:05:06;12.20;47.40
49549;DHT22;35450;44.518;7.466;2023-04-01T05:08:10;12.40;46.70
49549;DHT22;35450;44.518;7.466;2023-04-01T05:11:17;12.50;46.70
49549;DHT22;35450;44.518;7.466;2023-04-01T05:14:21;12.60;46.60
49549;DHT22;35450;44.518;7.466;2023-04-01T05:17:33;12.70;45.80
49549;DHT22;35450;44.518;7.466;2023-04-01T05:20:37;12.70;45.90
49549;DHT22;35450;44.518;7.466;2023-04-01T05:23:42;12.70;46.30
49549;DHT22;35450;44.518;7.466;2023-04-01T05:26:46;12.70;45.50
49549;DHT22;35450;44.518;7.466;2023-04-01T05:29:50;12.70;46.40
49549;DHT22;35450;44.518;7.466;2023-04-01T05:33:27;12.80;45.20
49549;DHT22;35450;44.518;7.466;2023-04-01T05:36:31;12.80;45.70
49549;DHT22;35450;44.518;7.466;2023-04-01T05:39:37;12.90;45.20
49549;DHT22;35450;44.518;7.466;2023-04-01T05:42:41;12.90;44.80
49549;DHT22;35450;44.518;7.466;2023-04-01T05:45:45;13.00;45.00
49549;DHT22;35450;44.518;7.466;2023-04-01T05:48:52;13.00;45.30
49549;DHT22;35450;44.518;7.466;2023-04-01T05:51:57;13.00;44.60
49549;DHT22;35450;44.518;7.466;2023-04-01T05:55:00;13.00;44.40
49549;DHT22;35450;44.518;7.466;2023-04-01T05:58:04;13.00;44.80
49549;DHT22;35450;44.518;7.466;2023-04-01T06:01:10;13.10;44.70
49549;DHT22;35450;44.518;7.466;2023-04-01T06:04:17;13.10;45.10
49549;DHT22;35450;44.518;7.466;2023-04-01T06:07:22;13.00;45.80
49549;DHT22;35450;44.518;7.466;2023-04-01T06:17:34;12.80;51.10
49549;DHT22;35450;44.518;7.466;2023-04-01T06:27:48;12.80;51.30
49549;DHT22;35450;44.518;7.466;2023-04-01T06:31:10;12.80;51.70
49549;DHT22;35450;44.518;7.466;2023-04-01T06:34:27;12.80;52.70
49549;DHT22;35450;44.518;7.466;2023-04-01T06:41:06;12.90;51.90
49549;DHT22;35450;44.518;7.466;2023-04-01T06:52:31;13.10;48.50
49549;DHT22;35450;44.518;7.466;2023-04-01T06:56:18;13.30;48.20
49549;DHT22;35450;44.518;7.466;2023-04-01T06:59:45;13.30;49.70
49549;DHT22;35450;44.518;7.466;2023-04-01T07:06:21;13.50;47.40
49549;DHT22;35450;44.518;7.466;2023-04-01T07:09:40;13.50;48.60
49549;DHT22;35450;44.518;7.466;2023-04-01T07:13:06;13.50;47.80
49549;DHT22;35450;44.518;7.466;2023-04-01T07:16:58;13.60;47.70
49549;DHT22;35450;44.518;7.466;2023-04-01T07:20:29;13.60;48.30
49549;DHT22;35450;44.518;7.466;2023-04-01T07:23:46;13.70;46.80
49549;DHT22;35450;44.518;7.466;2023-04-01T07:27:29;13.80;47.60
49549;DHT22;35450;44.518;7.466;2023-04-01T07:33:58;13.80;48.60
49549;DHT22;35450;44.518;7.466;2023-04-01T07:37:06;13.90;47.60
49549;DHT22;35450;44.518;7.466;2023-04-01T07:57:55;14.10;47.20
49549;DHT22;35450;44.518;7.466;2023-04-01T08:00:42;14.10;48.50
49549;DHT22;35450;44.518;7.466;2023-04-01T08:04:32;14.20;48.00
49549;DHT22;35450;44.518;7.466;2023-04-01T08:16:12;14.30;48.20
49549;DHT22;35450;44.518;7.466;2023-04-01T08:20:13;14.30;49.70
49549;DHT22;35450;44.518;7.466;2023-04-01T08:23:28;14.30;48.70
49549;DHT22;35450;44.518;7.466;2023-04-01T08:30:02;14.40;48.60
49549;DHT22;35450;44.518;7.466;2023-04-01T08:33:30;14.40;48.40
49549;DHT22;35450;44.518;7.466;2023-04-01T08:36:50;14.50;47.90
49549;DHT22;35450;44.518;7.466;2023-04-01T08:43:28;14.60;48.80
49549;DHT22;35450;44.518;7.466;2023-04-01T08:57:04;14.70;46.70
49549;DHT22;35450;44.518;7.466;2023-04-01T09:00:33;14.70;47.70
49549;DHT22;35450;44.518;7.466;2023-04-01T09:11:45;14.90;47.50
49549;DHT22;35450;44.518;7.466;2023-04-01T10:40:57;16.00;44.60
49549;DHT22;35450;44.518;7.466;2023-04-01T11:32:42;16.90;46.30
49549;DHT22;35450;44.518;7.466;2023-04-01T11:46:25;17.00;43.10
49549;DHT22;35450;44.518;7.466;2023-04-01T12:06:54;17.30;41.40
49549;DHT22;35450;44.518;7.466;2023-04-01T12:23:37;17.20;39.60
49549;DHT22;35450;44.518;7.466;2023-04-01T12:27:14;17.20;41.50
49549;DHT22;35450;44.518;7.466;2023-04-01T12:37:26;17.10;40.00
49549;DHT22;35450;44.518;7.466;2023-04-01T13:01:04;17.30;39.90
49549;DHT22;35450;44.518;7.466;2023-04-01T13:11:25;17.60;37.00
49549;DHT22;35450;44.518;7.466;2023-04-01T13:14:38;17.60;36.50
49549;DHT22;35450;44.518;7.466;2023-04-01T13:24:55;17.30;40.50
49549;DHT22;35450;44.518;7.466;2023-04-01T13:28:23;17.20;38.50
49549;DHT22;35450;44.518;7.466;2023-04-01T13:35:37;17.10;37.30
49549;DHT22;35450;44.518;7.466;2023-04-01T13:45:15;16.90;37.90
49549;DHT22;35450;44.518;7.466;2023-04-01T14:16:52;17.20;39.60
49549;DHT22;35450;44.518;7.466;2023-04-01T14:23:26;17.20;39.30
49549;DHT22;35450;44.518;7.466;2023-04-01T14:26:54;17.20;39.70
49549;DHT22;35450;44.518;7.466;2023-04-01T14:40:22;17.20;42.00
49549;DHT22;35450;44.518;7.466;2023-04-01T14:50:31;17.20;41.50
49549;DHT22;35450;44.518;7.466;2023-04-01T14:54:04;17.20;39.50
49549;DHT22;35450;44.518;7.466;2023-04-01T15:00:19;17.10;47.40
49549;DHT22;35450;44.518;7.466;2023-04-01T15:10:38;17.10;40.10
49549;DHT22;35450;44.518;7.466;2023-04-01T15:14:10;17.10;39.50
49549;DHT22;35450;44.518;7.466;2023-04-01T15:24:46;17.50;38.30
49549;DHT22;35450;44.518;7.466;2023-04-01T15:31:45;18.00;37.70
49549;DHT22;35450;44.518;7.466;2023-04-01T15:42:04;17.80;39.40
49549;DHT22;35450;44.518;7.466;2023-04-01T15:45:15;17.60;38.90
49549;DHT22;35450;44.518;7.466;2023-04-01T16:01:40;17.10;40.50
49549;DHT22;35450;44.518;7.466;2023-04-01T16:05:00;17.00;40.60
49549;DHT22;35450;44.518;7.466;2023-04-01T16:08:17;17.00;40.10
49549;DHT22;35450;44.518;7.466;2023-04-01T16:11:53;17.00;40.20
49549;DHT22;35450;44.518;7.466;2023-04-01T16:21:59;17.20;41.80
49549;DHT22;35450;44.518;7.466;2023-04-01T16:41:14;18.10;38.30
49549;DHT22;35450;44.518;7.466;2023-04-01T16:44:25;18.10;38.30
49549;DHT22;35450;44.518;7.466;2023-04-01T16:51:13;17.70;38.00
49549;DHT22;35450;44.518;7.466;2023-04-01T17:00:58;17.20;41.30
49549;DHT22;35450;44.518;7.466;2023-04-01T17:04:17;17.00;40.00
49549;DHT22;35450;44.518;7.466;2023-04-01T17:11:04;16.90;40.40
49549;DHT22;35450;44.518;7.466;2023-04-01T17:14:28;16.90;40.30
49549;DHT22;35450;44.518;7.466;2023-04-01T17:25:00;16.80;42.70
49549;DHT22;35450;44.518;7.466;2023-04-01T17:44:57;16.20;42.20
49549;DHT22;35450;44.518;7.466;2023-04-01T17:52:01;16.30;43.50
49549;DHT22;35450;44.518;7.466;2023-04-01T17:59:26;16.30;43.70
49549;DHT22;35450;44.518;7.466;2023-04-01T18:19:39;15.80;44.70
49549;DHT22;35450;44.518;7.466;2023-04-01T18:22:55;15.70;44.70
49549;DHT22;35450;44.518;7.466;2023-04-01T18:26:27;15.60;45.50
49549;DHT22;35450;44.518;7.466;2023-04-01T18:33:18;15.60;45.40
49549;DHT22;35450;44.518;7.466;2023-04-01T18:39:41;15.50;47.80
49549;DHT22;35450;44.518;7.466;2023-04-01T18:46:26;15.50;47.60
49549;DHT22;35450;44.518;7.466;2023-04-01T18:56:50;15.50;49.00
49549;DHT22;35450;44.518;7.466;2023-04-01T19:00:22;15.40;48.60
49549;DHT22;35450;44.518;7.466;2023-04-01T19:04:28;15.50;50.30
49549;DHT22;35450;44.518;7.466;2023-04-01T19:20:22;15.10;51.50
49549;DHT22;35450;44.518;7.466;2023-04-01T19:30:32;15.00;50.00
49549;DHT22;35450;44.518;7.466;2023-04-01T19:37:03;15.20;50.60
49549;DHT22;35450;44.518;7.466;2023-04-01T19:43:51;14.80;51.80
49549;DHT22;35450;44.518;7.466;2023-04-01T19:50:37;14.90;51.60
49549;DHT22;35450;44.518;7.466;2023-04-01T19:53:54;14.90;51.10
49549;DHT22;35450;44.518;7.466;2023-04-01T20:00:29;14.90;52.60
49549;DHT22;35450;44.518;7.466;2023-04-01T20:07:10;15.00;51.50
49549;DHT22;35450;44.518;7.466;2023-04-01T20:17:15;15.10;51.10
49549;DHT22;35450;44.518;7.466;2023-04-01T20:20:23;15.10;53.70
49549;DHT22;35450;44.518;7.466;2023-04-01T20:23:45;15.10;53.10
49549;DHT22;35450;44.518;7.466;2023-04-01T20:27:14;15.10;52.00
49549;DHT22;35450;44.518;7.466;2023-04-01T20:34:17;15.10;50.50
49549;DHT22;35450;44.518;7.466;2023-04-01T20:40:48;15.30;48.60
49549;DHT22;35450;44.518;7.466;2023-04-01T20:44:20;15.20;48.60
49549;DHT22;35450;44.518;7.466;2023-04-01T20:51:03;15.30;48.80
49549;DHT22;35450;44.518;7.466;2023-04-01T20:57:56;15.20;49.10
49549;DHT22;35450;44.518;7.466;2023-04-01T21:05:09;15.20;50.60
49549;DHT22;35450;44.518;7.466;2023-04-01T21:25:55;14.60;52.00
49549;DHT22;35450;44.518;7.466;2023-04-01T21:29:24;14.60;51.60
49549;DHT22;35450;44.518;7.466;2023-04-01T21:46:40;14.50;53.40
49549;DHT22;35450;44.518;7.466;2023-04-01T22:00:27;14.40;54.50
49549;DHT22;35450;44.518;7.466;2023-04-01T22:03:54;14.40;54.20
49549;DHT22;35450;44.518;7.466;2023-04-01T22:10:20;14.30;54.10
49549;DHT22;35450;44.518;7.466;2023-04-01T22:13:36;14.30;55.30
49549;DHT22;35450;44.518;7.466;2023-04-01T22:16:58;14.10;54.60
49549;DHT22;35450;44.518;7.466;2023-04-01T22:20:27;14.00;54.40
49549;DHT22;35450;44.518;7.466;2023-04-01T22:23:44;13.90;55.50
49549;DHT22;35450;44.518;7.466;2023-04-01T22:26:54;13.80;54.90
49549;DHT22;35450;44.518;7.466;2023-04-01T22:30:26;13.60;55.00
49549;DHT22;35450;44.518;7.466;2023-04-01T22:40:24;13.50;55.50
49549;DHT22;35450;44.518;7.466;2023-04-01T22:43:44;13.50;55.80
49549;DHT22;35450;44.518;7.466;2023-04-01T22:46:59;13.60;55.30
49549;DHT22;35450;44.518;7.466;2023-04-01T22:57:05;13.60;56.40
49549;DHT22;35450;44.518;7.466;2023-04-01T23:00:16;13.60;56.20
49549;DHT22;35450;44.518;7.466;2023-04-01T23:03:29;13.40;56.30
49549;DHT22;35450;44.518;7.466;2023-04-01T23:06:44;13.40;57.20
49549;DHT22;35450;44.518;7.466;2023-04-01T23:09:51;13.40;57.40
49549;DHT22;35450;44.518;7.466;2023-04-01T23:12:58;13.40;57.80
49549;DHT22;35450;44.518;7.466;2023-04-01T23:16:02;13.40;57.60
49549;DHT22;35450;44.518;7.466;2023-04-01T23:26:42;13.30;57.30
49549;DHT22;35450;44.518;7.466;2023-04-01T23:29:49;13.10;57.80
49549;DHT22;35450;44.518;7.466;2023-04-01T23:32:54;13.10;57.70
49549;DHT22;35450;44.518;7.466;2023-04-01T23:36:13;13.20;57.00
49549;DHT22;35450;44.518;7.466;2023-04-01T23:39:36;13.20;57.60
49549;DHT22;35450;44.518;7.466;2023-04-01T23:42:41;13.00;57.80
49549;DHT22;35450;44.518;7.466;2023-04-01T23:45:45;13.10;57.80
49549;DHT22;35450;44.518;7.466;2023-04-01T23:48:50;13.20;57.90
49549;DHT22;35450;44.518;7.466;2023-04-01T23:51:59;13.20;57.90
49549;DHT22;35450;44.518;7.466;2023-04-01T23:58:24;13.00;58.00
